Latest Weather Observations for Loxton

IDS60801

Issued at 7:31 pm CST Saturday 4 July 2015 (issued every 30 minutes, with the page automatically refreshed every 10 minutes)

About weather observations | Map of weather stations | Latest weather observations for SA | Other Formats
Station Details ID: 024024 Name: LOXTON RESEARCH CENTRE Lat: -34.44 Lon: 140.60 Height: 30.1 m
Data from the previous 72 hours. | See also: Recent months at Loxton
Date/Time
CST
Temp
°C
App
Temp
°C
Dew
Point
Rel
Hum
%
Delta-T
°C
Wind Press
QNH
hPa
Press
MSL
hPa
Rain
since 9 am
mm
Dir
 
Spd
km/h
Gust
km/h
Spd
kts
Gust
kts
04/07:30pm 8.3 7.3 5.4 82 1.3 CALM 0 0 0 0 1022.6 1022.6 0.0
04/07:00pm 8.9 7.8 5.3 78 1.6 CALM 0 0 0 0 1022.5 1022.5 0.0
04/06:30pm 8.8 7.7 5.2 78 1.6 CALM 0 0 0 0 1022.5 1022.5 0.0
04/06:00pm 9.0 7.2 3.7 69 2.3 ENE 2 6 1 3 1022.2 1022.2 0.0
04/05:30pm 9.2 6.9 4.9 74 1.9 ENE 6 7 3 4 1022.0 1022.0 0.0
04/05:00pm 12.2 9.7 5.0 61 3.3 ENE 7 9 4 5 1022.0 1022.0 0.0
04/04:30pm 14.6 12.8 3.6 47 5.0 NE 2 9 1 5 1021.9 1021.9 0.0
04/04:00pm 15.7 12.9 2.2 40 6.0 NNE 6 9 3 5 1022.1 1022.1 0.0
04/03:30pm 16.0 13.4 3.0 41 5.9 ENE 6 9 3 5 1022.1 1022.1 0.0
04/03:00pm 16.2 13.9 2.7 40 6.1 N 4 9 2 5 1022.0 1022.0 0.0
04/02:30pm 15.8 12.8 2.3 40 6.0 NNW 7 13 4 7 1022.0 1022.0 0.0
04/02:00pm 15.7 13.0 2.5 41 5.9 NNE 6 15 3 8 1022.4 1022.4 0.0
04/01:30pm 15.0 12.2 3.0 44 5.4 N 7 17 4 9 1022.8 1022.8 0.0
04/01:00pm 14.9 12.0 2.8 44 5.4 NW 7 15 4 8 1023.2 1023.2 0.0
04/12:30pm 14.2 11.0 3.3 48 4.9 NNW 9 13 5 7 1023.6 1023.6 0.0
04/12:00pm 14.5 11.4 3.4 47 5.0 NNW 9 13 5 7 1024.0 1024.0 0.0
04/11:30am 13.9 11.7 3.1 48 4.8 NNE 4 13 2 7 1024.4 1024.4 0.0
04/11:00am 13.1 11.2 2.6 49 4.6 N 2 9 1 5 1024.9 1024.9 0.0
04/10:30am 12.0 10.4 2.5 52 4.1 CALM 0 0 0 0 1025.3 1025.3 0.0
04/10:00am 10.1 7.3 2.0 57 3.4 N 6 9 3 5 1025.6 1025.6 0.0
04/09:30am 8.0 4.9 1.6 64 2.6 N 7 9 4 5 1025.6 1025.6 0.0
04/09:00am 5.4 3.7 1.6 76 1.5 CALM 0 0 0 0 1025.7 1025.7 0.0
04/08:30am 3.0 1.1 0.6 84 0.9 CALM 0 0 0 0 1025.5 1025.5 0.0
04/08:00am 0.0 - - - - CALM 0 0 0 0 1025.6 1025.6 0.0
04/07:30am -1.8 - - - - CALM 0 0 0 0 1025.4 1025.4 0.0
04/07:00am -1.8 - - - - CALM 0 0 0 0 1025.1 1025.1 0.0
04/06:30am -1.5 - - - - CALM 0 0 0 0 1024.7 1024.7 0.0
04/06:00am -1.5 - - - - CALM 0 0 0 0 1024.4 1024.4 0.0
04/05:30am -1.3 - - - - CALM 0 0 0 0 1024.4 1024.4 0.0
04/05:00am -1.0 - - - - CALM 0 0 0 0 1024.4 1024.4 0.0
04/04:30am -0.8 - - - - CALM 0 0 0 0 1024.3 1024.3 0.0
04/04:00am -0.3 - - - - CALM 0 0 0 0 1024.3 1024.3 0.0
04/03:30am -0.3 - - - - CALM 0 0 0 0 1024.5 1024.5 0.0
04/03:00am 0.3 -1.7 -0.1 97 0.1 CALM 0 0 0 0 1024.6 1024.6 0.0
04/02:30am 0.7 -1.3 -0.4 92 0.4 CALM 0 0 0 0 1024.7 1024.7 0.0
04/02:00am 1.3 -0.6 0.5 94 0.3 CALM 0 0 0 0 1024.7 1024.7 0.0
04/01:30am 1.7 -0.1 0.9 94 0.3 CALM 0 0 0 0 1024.8 1024.8 0.0
04/01:00am 2.1 0.2 0.8 91 0.5 CALM 0 0 0 0 1025.0 1025.0 0.0
04/12:30am 3.3 1.7 2.3 93 0.4 CALM 0 0 0 0 1025.4 1025.4 0.0
04/12:00am 3.8 2.1 1.8 87 0.8 CALM 0 0 0 0 1025.8 1025.8 0.0
 
Date/Time
CST
Temp
°C
App
Temp
°C
Dew
Point
Rel
Hum
%
Delta-T
°C
Wind Press
QNH
hPa
Press
MSL
hPa
Rain
since 9 am
mm
Dir
 
Spd
km/h
Gust
km/h
Spd
kts
Gust
kts
03/11:30pm 4.0 2.4 2.5 90 0.6 CALM 0 0 0 0 1025.9 1025.9 0.0
03/11:00pm 4.8 3.3 2.8 87 0.8 CALM 0 0 0 0 1025.8 1025.8 0.0
03/10:30pm 5.3 3.8 2.8 84 1.0 CALM 0 0 0 0 1025.7 1025.7 0.0
03/10:00pm 5.4 3.8 2.4 81 1.2 CALM 0 0 0 0 1026.0 1026.0 0.0
03/09:30pm 5.7 4.3 3.5 86 0.9 CALM 0 0 0 0 1026.5 1026.5 0.0
03/09:00pm 5.6 4.1 3.2 84 1.0 CALM 0 0 0 0 1026.6 1026.6 0.0
03/08:30pm 6.0 4.6 3.6 84 1.0 CALM 0 0 0 0 1026.7 1026.7 0.0
03/08:00pm 6.5 5.2 3.9 83 1.1 CALM 0 0 0 0 1026.6 1026.6 0.0
03/07:30pm 6.6 5.1 3.2 79 1.4 CALM 0 0 0 0 1026.5 1026.5 0.0
03/07:00pm 7.5 6.2 4.3 80 1.4 CALM 0 0 0 0 1026.5 1026.5 0.0
03/06:30pm 9.0 7.9 4.9 75 1.8 CALM 0 0 0 0 1026.5 1026.5 0.0
03/06:00pm 9.7 8.0 4.2 68 2.4 NW 2 6 1 3 1026.7 1026.7 0.0
03/05:30pm 11.2 8.5 2.6 55 3.7 NW 6 7 3 4 1026.6 1026.6 0.0
03/05:00pm 11.8 8.8 2.2 52 4.1 NNW 7 9 4 5 1026.5 1026.5 0.0
03/04:30pm 12.2 9.4 1.9 49 4.4 NW 6 9 3 5 1026.5 1026.5 0.0
03/04:00pm 12.5 10.8 1.7 47 4.6 CALM 0 6 0 3 1026.6 1026.6 0.0
03/03:30pm 12.8 9.5 0.2 42 5.2 N 7 11 4 6 1026.8 1026.8 0.0
03/03:00pm 12.8 9.1 -0.1 41 5.3 NW 9 11 5 6 1026.9 1026.9 0.0
03/02:30pm 12.9 9.2 -0.3 40 5.4 NNW 9 17 5 9 1026.8 1026.8 0.0
03/02:00pm 13.3 9.5 -0.4 39 5.6 NNW 9 17 5 9 1026.6 1026.6 0.0
03/01:30pm 12.6 8.9 -0.1 41 5.2 NNW 9 15 5 8 1027.2 1027.2 0.0
03/01:00pm 13.2 8.8 0.2 41 5.4 N 13 33 7 18 1027.5 1027.5 0.0
03/12:30pm 12.8 8.6 -0.8 39 5.5 NNW 11 17 6 9 1028.0 1028.0 0.0
03/12:00pm 12.9 8.4 0.0 41 5.3 NNW 13 17 7 9 1028.8 1028.9 0.0
03/11:30am 12.0 8.0 0.6 45 4.7 N 11 19 6 10 1029.4 1029.5 0.0
03/11:00am 10.5 6.6 1.3 53 3.8 NNE 11 17 6 9 1030.0 1030.1 0.0
03/10:30am 8.9 5.4 1.3 59 3.1 NNE 9 13 5 7 1030.3 1030.4 0.0
03/10:00am 7.9 4.8 1.2 62 2.7 NE 7 9 4 5 1030.9 1031.0 0.0
03/09:30am 6.0 2.6 1.7 74 1.7 ENE 9 11 5 6 1030.5 1030.6 0.0
03/09:00am 4.2 1.1 1.1 80 1.2 ENE 7 9 4 5 1030.2 1030.3 0.0
03/08:30am 2.9 0.0 1.3 89 0.6 SSE 6 7 3 4 1030.1 1030.2 0.0
03/08:00am 0.8 -1.2 -0.3 92 0.4 CALM 0 0 0 0 1030.1 1030.2 0.0
03/07:30am -0.6 - - - - CALM 0 0 0 0 1029.7 1029.8 0.0
03/07:00am 0.1 - - - - SSE 4 7 2 4 1029.7 1029.8 0.0
03/06:30am 0.3 - - - - CALM 0 0 0 0 1029.7 1029.8 0.0
03/06:00am 0.3 - - - - CALM 0 4 0 2 1029.7 1029.8 0.0
03/05:30am -0.9 - - - - CALM 0 0 0 0 1029.6 1029.7 0.0
03/05:00am -1.4 - - - - CALM 0 0 0 0 1029.4 1029.5 0.0
03/04:30am -1.3 - - - - CALM 0 0 0 0 1029.5 1029.6 0.0
03/04:00am -1.5 - - - - CALM 0 0 0 0 1029.5 1029.6 0.0
03/03:30am -1.1 - - - - CALM 0 0 0 0 1029.7 1029.8 0.0
03/03:00am -1.1 - - - - CALM 0 0 0 0 1029.6 1029.7 0.0
03/02:30am -0.6 - - - - CALM 0 0 0 0 1029.6 1029.7 0.0
03/02:00am 0.1 - - - - CALM 0 0 0 0 1029.6 1029.7 0.0
03/01:30am 0.6 -1.4 0.0 96 0.2 CALM 0 0 0 0 1029.8 1029.9 0.0
03/01:00am 0.7 -1.3 -0.1 94 0.3 CALM 0 0 0 0 1029.8 1029.9 0.0
03/12:30am 0.9 -1.1 -0.2 92 0.4 CALM 0 4 0 2 1030.1 1030.2 0.0
03/12:00am 1.4 -0.5 0.3 92 0.4 CALM 0 0 0 0 1030.3 1030.4 0.0
 
Date/Time
CST
Temp
°C
App
Temp
°C
Dew
Point
Rel
Hum
%
Delta-T
°C
Wind Press
QNH
hPa
Press
MSL
hPa
Rain
since 9 am
mm
Dir
 
Spd
km/h
Gust
km/h
Spd
kts
Gust
kts
02/11:30pm 2.0 0.1 0.7 91 0.5 CALM 0 0 0 0 1030.4 1030.5 0.0
02/11:00pm 3.6 1.8 1.5 86 0.8 CALM 0 0 0 0 1030.3 1030.4 0.0
02/10:30pm 4.8 1.8 1.8 81 1.2 S 7 9 4 5 1030.2 1030.3 0.0
02/10:00pm 5.9 2.5 1.9 75 1.6 S 9 11 5 6 1030.3 1030.4 0.0
02/09:30pm 6.6 2.8 1.9 72 1.9 S 11 13 6 7 1030.2 1030.3 0.0
02/09:00pm 7.2 3.4 2.0 69 2.1 S 11 13 6 7 1030.2 1030.3 0.0
02/08:30pm 8.3 4.2 2.3 66 2.5 S 13 15 7 8 1029.9 1030.0 0.0
02/08:00pm 8.7 5.0 2.2 63 2.7 S 11 13 6 7 1029.8 1029.9 0.0
02/07:30pm 8.8 6.0 2.9 66 2.5 SSW 7 9 4 5 1029.5 1029.6 0.0
02/07:00pm 9.4 6.1 2.5 62 2.9 S 9 13 5 7 1029.3 1029.4 0.0
02/06:30pm 9.6 6.8 3.3 65 2.7 SSW 7 9 4 5 1029.1 1029.2 0.0
02/06:00pm 10.8 7.5 2.6 57 3.5 SSW 9 15 5 8 1028.7 1028.8 0.0
02/05:30pm 11.8 8.1 2.5 53 4.0 SW 11 15 6 8 1028.5 1028.5 0.0
02/05:00pm 13.3 9.5 1.6 45 5.0 SW 11 15 6 8 1028.4 1028.4 0.0
02/04:30pm 14.6 9.7 1.7 41 5.6 SW 17 24 9 13 1028.2 1028.2 0.0
02/04:00pm 15.1 8.7 0.8 37 6.2 SW 24 30 13 16 1028.1 1028.1 0.0
02/03:30pm 15.6 10.1 1.7 39 6.1 SSW 20 32 11 17 1028.0 1028.0 0.0
02/03:00pm 15.4 9.0 1.0 37 6.2 SW 24 39 13 21 1027.9 1027.9 0.0
02/02:30pm 15.2 9.7 2.0 41 5.8 SSW 20 32 11 17 1028.2 1028.2 0.0
02/02:00pm 15.2 10.0 3.5 45 5.3 SSW 20 30 11 16 1028.1 1028.1 0.0
02/01:30pm 15.5 9.7 4.2 47 5.2 SSW 24 35 13 19 1028.0 1028.0 0.0
02/01:00pm 15.6 9.9 4.7 48 5.1 SW 24 37 13 20 1027.9 1027.9 0.0
02/12:30pm 15.5 10.8 5.3 50 4.8 SSW 19 28 10 15 1028.1 1028.1 0.0
02/12:00pm 14.8 9.7 6.2 56 4.1 SSW 22 33 12 18 1028.4 1028.4 0.0
02/11:30am 14.1 9.1 6.6 60 3.6 SSW 22 33 12 18 1028.7 1028.8 0.0
02/11:00am 14.0 9.6 7.4 64 3.2 SSW 20 30 11 16 1028.8 1028.9 0.0
02/10:30am 13.2 9.1 8.6 73 2.3 SW 20 30 11 16 1028.9 1029.0 0.0
02/10:00am 11.3 7.9 7.8 79 1.7 WSW 15 19 8 10 1028.8 1028.9 0.0
02/09:30am 9.5 6.3 6.9 84 1.2 WSW 13 19 7 10 1028.3 1028.3 0.0
02/09:00am 9.5 6.1 6.0 79 1.6 WSW 13 19 7 10 1028.2 1028.2 0.0
02/08:30am 8.5 5.3 4.9 78 1.6 WNW 11 15 6 8 1027.8 1027.8 0.0
02/08:00am 8.0 4.7 4.3 77 1.6 WNW 11 15 6 8 1027.5 1027.5 0.0
02/07:30am 7.0 3.5 3.7 79 1.4 NW 11 19 6 10 1027.4 1027.4 0.0
02/07:00am 7.2 3.4 3.7 78 1.5 NW 13 17 7 9 1027.1 1027.1 0.0
02/06:30am 6.5 3.4 3.6 82 1.2 NW 9 13 5 7 1027.0 1027.0 0.0
02/06:00am 6.9 3.8 3.8 81 1.3 NW 9 11 5 6 1026.4 1026.4 0.0
02/05:30am 7.4 4.0 3.9 78 1.5 NW 11 13 6 7 1026.4 1026.4 0.0
02/05:00am 8.1 4.7 3.9 75 1.8 NW 11 15 6 8 1026.5 1026.5 0.0
02/04:30am 7.8 4.5 4.3 78 1.5 NW 11 13 6 7 1026.3 1026.3 0.0
02/04:00am 7.3 4.3 4.0 79 1.4 NW 9 13 5 7 1026.3 1026.3 0.0
02/03:30am 7.8 4.4 4.1 77 1.6 WNW 11 13 6 7 1026.4 1026.4 0.0
02/03:00am 8.3 4.5 4.1 75 1.8 WNW 13 17 7 9 1026.6 1026.6 0.0
02/02:30am 8.1 4.7 3.9 75 1.8 WNW 11 13 6 7 1026.7 1026.7 0.0
02/02:00am 8.4 4.9 3.7 72 2.0 WNW 11 13 6 7 1026.8 1026.8 0.0
02/01:30am 7.8 4.6 3.0 71 2.0 WNW 9 13 5 7 1026.9 1026.9 0.0
02/01:00am 8.4 5.2 2.9 68 2.3 NW 9 11 5 6 1026.9 1026.9 0.0
02/12:30am 9.2 5.5 2.5 63 2.8 NW 11 15 6 8 1027.3 1027.3 0.0
02/12:00am 8.8 5.1 2.3 64 2.7 WNW 11 13 6 7 1027.5 1027.5 0.0
 
Date/Time
CST
Temp
°C
App
Temp
°C
Dew
Point
Rel
Hum
%
Delta-T
°C
Wind Press
QNH
hPa
Press
MSL
hPa
Rain
since 9 am
mm
Dir
 
Spd
km/h
Gust
km/h
Spd
kts
Gust
kts
01/11:30pm 9.4 6.0 1.9 59 3.1 W 9 13 5 7 1027.8 1027.8 0.0
01/11:00pm 9.1 6.1 1.8 60 3.0 WNW 7 11 4 6 1027.7 1027.7 0.0
01/10:30pm 7.9 6.4 3.2 72 2.0 CALM 0 0 0 0 1027.5 1027.5 0.0
01/10:00pm 7.9 6.4 3.2 72 2.0 CALM 0 4 0 2 1027.7 1027.7 0.0
01/09:30pm 7.8 5.1 2.8 70 2.1 NW 6 7 3 4 1027.8 1027.8 0.0
01/09:00pm 8.2 5.5 2.4 67 2.4 NNW 6 7 3 4 1027.8 1027.8 0.0
01/08:30pm 8.5 6.9 2.5 66 2.5 CALM 0 0 0 0 1027.9 1027.9 0.0
01/08:00pm 8.7 6.0 2.8 66 2.5 NW 6 7 3 4 1027.9 1027.9 0.0

Other Formats:

Comma delimited format used in spreadsheet applications
http://www.bom.gov.au/fwo/IDS60801/IDS60801.94682.axf

JavaScript Object Notation format (JSON) in row-major order
http://www.bom.gov.au/fwo/IDS60801/IDS60801.94682.json